createdAt,value
2018-04-14T00:02:00.878Z,92.20
2018-04-14T00:04:28.507Z,92.50
2018-04-14T00:06:56.133Z,92.60
2018-04-14T00:09:23.752Z,92.80
2018-04-14T00:11:51.375Z,92.90
2018-04-14T00:14:19.006Z,92.90
2018-04-14T00:16:46.639Z,92.90
2018-04-14T00:19:14.256Z,93.00
2018-04-14T00:21:41.886Z,93.50
2018-04-14T00:24:09.515Z,93.10
2018-04-14T00:26:37.142Z,93.10
2018-04-14T00:29:04.767Z,93.30
2018-04-14T00:31:33.244Z,93.30
2018-04-14T00:34:00.871Z,93.40
2018-04-14T00:36:28.498Z,93.40
2018-04-14T00:38:56.131Z,93.50
2018-04-14T00:41:23.763Z,93.50
2018-04-14T00:43:51.387Z,93.40
2018-04-14T00:46:19.778Z,93.10
2018-04-14T00:48:47.439Z,93.10
2018-04-14T00:51:15.042Z,93.40
2018-04-14T00:53:47.574Z,93.20
2018-04-14T00:56:15.990Z,93.50
2018-04-14T00:58:43.630Z,93.40
2018-04-14T01:01:12.058Z,93.20
2018-04-14T01:03:43.652Z,93.10
2018-04-14T01:06:11.274Z,93.10
2018-04-14T01:08:38.911Z,93.00
2018-04-14T01:11:06.543Z,93.10
2018-04-14T01:13:34.174Z,93.20
2018-04-14T01:16:01.834Z,93.10
2018-04-14T01:18:29.467Z,93.20
2018-04-14T01:20:57.095Z,93.20
2018-04-14T01:23:24.724Z,93.10
2018-04-14T01:25:52.351Z,93.10
2018-04-14T01:28:20.753Z,93.40
2018-04-14T01:30:48.377Z,93.20
2018-04-14T01:33:16.002Z,93.20
2018-04-14T01:35:43.627Z,93.40
2018-04-14T01:38:11.259Z,93.30
2018-04-14T01:40:38.890Z,93.00
2018-04-14T01:43:06.515Z,93.40
2018-04-14T01:45:34.143Z,92.50
2018-04-14T01:48:01.762Z,91.90
2018-04-14T01:50:30.155Z,91.80
2018-04-14T01:52:58.553Z,91.60
2018-04-14T01:55:26.187Z,91.60
2018-04-14T01:57:53.810Z,91.60
2018-04-14T02:00:21.808Z,92.40
2018-04-14T02:02:49.438Z,91.90
2018-04-14T02:05:17.058Z,92.20
2018-04-14T02:07:44.688Z,91.80
2018-04-14T02:10:12.316Z,91.80
2018-04-14T02:12:39.938Z,91.80
2018-04-14T02:15:07.575Z,91.50
2018-04-14T02:17:35.195Z,91.80
2018-04-14T02:20:03.596Z,92.40
2018-04-14T02:22:32.003Z,92.10
2018-04-14T02:24:59.623Z,92.00
2018-04-14T02:27:27.266Z,92.30
2018-04-14T02:29:54.919Z,92.40
2018-04-14T02:32:22.549Z,92.70
2018-04-14T02:34:50.939Z,92.60
2018-04-14T02:37:18.567Z,92.60
2018-04-14T02:39:46.194Z,92.70
2018-04-14T02:42:13.818Z,92.70
2018-04-14T02:44:41.451Z,92.60
2018-04-14T02:47:09.074Z,92.70
2018-04-14T02:49:36.702Z,92.60
2018-04-14T02:52:04.335Z,92.80
2018-04-14T02:54:31.965Z,92.50
2018-04-14T02:56:59.591Z,92.60
2018-04-14T02:59:27.215Z,92.90
2018-04-14T03:01:54.838Z,93.40
2018-04-14T03:04:23.243Z,93.20
2018-04-14T03:06:50.880Z,93.10
2018-04-14T03:09:18.499Z,93.40
2018-04-14T03:11:46.127Z,93.40
2018-04-14T03:14:14.522Z,93.10
2018-04-14T03:16:42.155Z,93.10
2018-04-14T03:19:09.782Z,93.40
2018-04-14T03:21:37.411Z,93.40
2018-04-14T03:24:05.800Z,93.40
2018-04-14T03:26:34.186Z,93.40
2018-04-14T03:29:01.820Z,93.40
2018-04-14T03:31:30.954Z,92.90
2018-04-14T03:33:58.587Z,92.90
2018-04-14T03:36:26.206Z,92.90
2018-04-14T03:38:53.831Z,92.90
2018-04-14T03:41:22.222Z,92.90
2018-04-14T03:43:50.619Z,92.70
2018-04-14T03:46:18.242Z,92.70
2018-04-14T03:48:46.643Z,93.30
2018-04-14T03:51:14.263Z,92.90
2018-04-14T03:53:41.911Z,93.00
2018-04-14T03:56:09.534Z,92.80
2018-04-14T03:58:37.159Z,93.00
2018-04-14T04:01:10.084Z,93.10
2018-04-14T04:03:37.706Z,93.30
2018-04-14T04:06:05.331Z,93.50
2018-04-14T04:08:33.722Z,93.20
2018-04-14T04:11:02.116Z,93.00
2018-04-14T04:13:29.744Z,93.00
2018-04-14T04:15:57.376Z,93.00
2018-04-14T04:18:36.863Z,92.80
2018-04-14T04:21:17.050Z,93.30
2018-04-14T04:23:57.379Z,93.20
2018-04-14T04:26:26.155Z,93.60
2018-04-14T04:28:53.782Z,93.90
2018-04-14T04:31:21.411Z,93.50
2018-04-14T04:33:49.799Z,93.80
2018-04-14T04:36:17.446Z,93.80
2018-04-14T04:38:45.066Z,93.60
2018-04-14T04:41:12.694Z,93.70
2018-04-14T04:43:41.083Z,94.10
2018-04-14T04:46:08.710Z,94.10
2018-04-14T04:48:37.099Z,94.40
2018-04-14T04:51:04.730Z,94.40
2018-04-14T04:53:32.356Z,94.40
2018-04-14T04:56:00.787Z,94.30
2018-04-14T04:58:28.461Z,94.30
2018-04-14T05:00:56.042Z,94.00
2018-04-14T05:03:23.663Z,94.00
2018-04-14T05:05:51.295Z,93.80
2018-04-14T05:08:19.678Z,93.60
2018-04-14T05:10:48.062Z,93.50
2018-04-14T05:13:16.493Z,93.50
2018-04-14T05:15:44.096Z,93.50
2018-04-14T05:18:11.718Z,93.60
2018-04-14T05:20:39.350Z,93.20
2018-04-14T05:23:07.742Z,93.20
2018-04-14T05:25:35.371Z,93.20
2018-04-14T05:28:02.999Z,93.00
2018-04-14T05:30:30.627Z,93.20
2018-04-14T05:32:59.023Z,92.20
2018-04-14T05:35:26.648Z,92.20
2018-04-14T05:37:54.284Z,91.90
2018-04-14T05:40:21.920Z,91.30
2018-04-14T05:42:50.307Z,91.30
2018-04-14T05:45:17.930Z,91.20
2018-04-14T05:47:45.555Z,91.30
2018-04-14T05:50:14.190Z,91.00
2018-04-14T05:52:41.824Z,90.90
2018-04-14T05:55:09.443Z,90.90
2018-04-14T05:57:37.837Z,91.00
2018-04-14T06:00:06.223Z,89.70
2018-04-14T06:02:33.851Z,89.70
2018-04-14T06:05:01.480Z,90.70
2018-04-14T06:07:29.106Z,90.60
2018-04-14T06:09:57.505Z,88.30
2018-04-14T06:12:25.128Z,88.30
2018-04-14T06:14:52.761Z,88.40
2018-04-14T06:17:20.379Z,89.60
2018-04-14T06:19:48.784Z,88.60
2018-04-14T06:22:16.415Z,88.60
2018-04-14T06:24:44.035Z,87.40
2018-04-14T06:27:11.666Z,87.40
2018-04-14T06:29:40.051Z,87.10
2018-04-14T06:32:08.455Z,86.00
2018-04-14T06:34:36.086Z,85.90
2018-04-14T06:37:03.706Z,86.20
2018-04-14T06:39:31.346Z,86.80
2018-04-14T06:42:05.616Z,86.90
2018-04-14T06:44:33.242Z,86.20
2018-04-14T06:47:00.867Z,87.90
2018-04-14T06:49:28.498Z,88.10
2018-04-14T06:52:02.547Z,88.50
2018-04-14T06:54:30.311Z,86.80
2018-04-14T06:56:57.933Z,86.60
2018-04-14T06:59:25.658Z,87.60
2018-04-14T07:01:53.263Z,87.00
2018-04-14T07:04:20.889Z,86.80
2018-04-14T07:06:48.514Z,87.10
2018-04-14T07:09:16.138Z,88.30
2018-04-14T07:11:43.772Z,87.90
2018-04-14T07:14:11.391Z,87.40
2018-04-14T07:16:39.014Z,86.00
2018-04-14T07:19:07.406Z,85.80
2018-04-14T07:21:35.806Z,83.70
2018-04-14T07:24:03.436Z,83.60
2018-04-14T07:26:31.063Z,83.40
2018-04-14T07:28:58.703Z,82.50
2018-04-14T07:31:26.323Z,82.80
2018-04-14T07:33:53.951Z,81.30
2018-04-14T07:36:21.575Z,82.70
2018-04-14T07:38:49.202Z,81.00
2018-04-14T07:41:16.829Z,81.80
2018-04-14T07:43:44.463Z,79.40
2018-04-14T07:46:12.102Z,79.20
2018-04-14T07:48:40.743Z,81.90
2018-04-14T07:51:08.378Z,81.80
2018-04-14T07:53:36.007Z,80.00
2018-04-14T07:56:03.638Z,81.60
2018-04-14T07:58:32.035Z,80.30
2018-04-14T08:00:59.664Z,80.20
2018-04-14T08:03:27.286Z,80.90
2018-04-14T08:05:54.918Z,78.50
2018-04-14T08:08:23.319Z,80.30
2018-04-14T08:10:50.952Z,80.00
2018-04-14T08:13:18.579Z,77.60
2018-04-14T08:15:46.202Z,77.50
2018-04-14T08:18:14.591Z,76.80
2018-04-14T08:20:42.992Z,77.10
2018-04-14T08:23:10.617Z,77.10
2018-04-14T08:25:41.717Z,75.10
2018-04-14T08:28:10.379Z,72.70
2018-04-14T08:30:38.770Z,73.60
2018-04-14T08:33:06.399Z,73.60
2018-04-14T08:35:34.083Z,70.70
2018-04-14T08:38:02.484Z,71.60
2018-04-14T08:40:30.115Z,71.50
2018-04-14T08:42:57.743Z,73.50
2018-04-14T08:45:25.367Z,69.40
2018-04-14T08:47:53.909Z,68.50
2018-04-14T08:50:21.553Z,68.40
2018-04-14T08:52:49.276Z,69.50
2018-04-14T08:55:16.939Z,69.90
2018-04-14T08:57:44.622Z,70.00
2018-04-14T09:00:13.091Z,65.00
2018-04-14T09:02:40.766Z,65.00
2018-04-14T09:05:08.485Z,67.50
2018-04-14T09:07:36.986Z,63.80
2018-04-14T09:10:04.634Z,64.40
2018-04-14T09:12:32.294Z,61.20
2018-04-14T09:14:59.952Z,61.50
2018-04-14T09:17:27.633Z,61.00
2018-04-14T09:19:55.291Z,59.60
2018-04-14T09:22:24.663Z,59.90
2018-04-14T09:24:52.331Z,56.50
2018-04-14T09:27:20.084Z,59.90
2018-04-14T09:29:47.757Z,60.60
2018-04-14T09:32:15.415Z,59.60
2018-04-14T09:34:43.082Z,57.80
2018-04-14T09:37:11.065Z,60.00
2018-04-14T09:39:38.771Z,60.10
2018-04-14T09:42:06.488Z,58.80
2018-04-14T09:44:34.156Z,56.70
2018-04-14T09:47:01.852Z,56.40
2018-04-14T09:49:30.383Z,56.60
2018-04-14T09:51:59.180Z,56.50
2018-04-14T09:54:26.997Z,59.30
2018-04-14T09:56:54.736Z,55.90
2018-04-14T09:59:23.160Z,54.80
2018-04-14T10:01:51.677Z,54.40
2018-04-14T10:04:19.349Z,54.40
2018-04-14T10:06:47.069Z,56.00
2018-04-14T10:09:15.584Z,53.50
2018-04-14T10:11:44.011Z,55.80
2018-04-14T10:14:11.690Z,55.70
2018-04-14T10:16:39.331Z,52.70
2018-04-14T10:19:06.998Z,53.40
2018-04-14T10:21:34.662Z,53.40
2018-04-14T10:24:02.327Z,55.00
2018-04-14T10:26:29.994Z,55.40
2018-04-14T10:28:57.678Z,56.90
2018-04-14T10:31:25.323Z,57.60
2018-04-14T10:33:53.008Z,56.50
2018-04-14T10:36:20.675Z,56.40
2018-04-14T10:38:48.341Z,57.60
2018-04-14T10:41:16.027Z,56.70
2018-04-14T10:43:43.736Z,59.10
2018-04-14T10:46:11.409Z,57.20
2018-04-14T10:48:39.075Z,54.40
2018-04-14T10:51:06.728Z,55.10
2018-04-14T10:53:34.414Z,55.60
2018-04-14T10:56:02.114Z,50.60
2018-04-14T10:58:29.769Z,55.30
2018-04-14T11:00:57.563Z,52.60
2018-04-14T11:03:25.388Z,53.30
2018-04-14T11:05:53.114Z,48.70
2018-04-14T11:08:20.764Z,48.30
2018-04-14T11:10:48.945Z,49.60
2018-04-14T11:13:16.651Z,47.20
2018-04-14T11:15:44.358Z,46.50
2018-04-14T11:18:16.709Z,48.00
2018-04-14T11:20:44.391Z,50.90
2018-04-14T11:23:12.046Z,52.20
2018-04-14T11:25:39.694Z,54.60
2018-04-14T11:28:07.375Z,54.80
2018-04-14T11:30:35.130Z,56.90
2018-04-14T11:33:02.905Z,54.60
2018-04-14T11:35:30.584Z,53.50
2018-04-14T11:37:58.344Z,55.00
2018-04-14T11:40:26.782Z,52.20
2018-04-14T11:42:54.412Z,52.20
2018-04-14T11:45:22.087Z,51.00
2018-04-14T11:47:49.773Z,49.40
2018-04-14T11:50:17.445Z,49.50
2018-04-14T11:52:45.132Z,45.30
2018-04-14T11:55:12.840Z,43.80
2018-04-14T11:57:40.789Z,44.00
2018-04-14T12:00:09.225Z,47.50
2018-04-14T12:02:36.921Z,47.60
2018-04-14T12:05:05.345Z,47.30
2018-04-14T12:07:33.006Z,47.30
2018-04-14T12:10:00.677Z,46.50
2018-04-14T12:12:28.334Z,42.30
2018-04-14T12:14:56.790Z,44.20
2018-04-14T12:17:24.438Z,44.20
2018-04-14T12:19:52.128Z,45.30
2018-04-14T12:22:20.537Z,47.40
2018-04-14T12:24:48.217Z,47.40
2018-04-14T12:27:15.928Z,49.50
2018-04-14T12:29:43.573Z,49.10
2018-04-14T12:32:11.234Z,51.80
2018-04-14T12:34:38.922Z,47.70
2018-04-14T12:37:06.552Z,46.50
2018-04-14T12:39:34.199Z,42.80
2018-04-14T12:42:02.079Z,40.80
2018-04-14T12:44:29.760Z,40.30
2018-04-14T12:46:57.417Z,39.70
2018-04-14T12:49:25.031Z,37.80
2018-04-14T12:51:52.660Z,37.90
2018-04-14T12:54:20.293Z,38.30
2018-04-14T12:56:47.915Z,37.40
2018-04-14T12:59:15.540Z,37.90
2018-04-14T13:01:43.168Z,38.30
2018-04-14T13:04:10.803Z,38.00
2018-04-14T13:06:38.427Z,39.20
2018-04-14T13:09:06.818Z,35.80
2018-04-14T13:11:34.452Z,35.70
2018-04-14T13:14:02.091Z,33.00
2018-04-14T13:16:29.715Z,34.40
2018-04-14T13:18:57.363Z,37.20
2018-04-14T13:21:25.754Z,39.50
2018-04-14T13:23:53.382Z,39.50
2018-04-14T13:26:21.011Z,37.20
2018-04-14T13:28:48.631Z,36.60
2018-04-14T13:31:17.027Z,37.80
2018-04-14T13:33:44.659Z,37.60
2018-04-14T13:36:12.291Z,36.90
2018-04-14T13:38:39.917Z,35.70
2018-04-14T13:41:08.312Z,33.50
2018-04-14T13:43:35.947Z,33.30
2018-04-14T13:46:03.575Z,32.60
2018-04-14T13:51:05.123Z,38.80
2018-04-14T13:53:41.451Z,39.90
2018-04-14T13:56:09.139Z,40.40
2018-04-14T13:58:37.528Z,39.40
2018-04-14T14:01:05.927Z,38.20
2018-04-14T14:03:33.556Z,38.10
2018-04-14T14:06:01.948Z,42.30
2018-04-14T14:08:29.592Z,42.20
2018-04-14T14:10:57.227Z,39.20
2018-04-14T14:13:26.778Z,38.50
2018-04-14T14:15:54.411Z,38.50
2018-04-14T14:18:22.035Z,40.70
2018-04-14T14:20:49.656Z,38.50
2018-04-14T14:23:17.294Z,40.10
2018-04-14T14:25:44.915Z,41.20
2018-04-14T14:28:12.539Z,43.00
2018-04-14T14:30:40.158Z,45.70
2018-04-14T14:33:08.563Z,43.50
2018-04-14T14:35:36.196Z,43.50
2018-04-14T14:38:03.819Z,43.30
2018-04-14T14:40:37.051Z,43.50
2018-04-14T14:43:04.819Z,45.80
2018-04-14T14:45:32.448Z,44.50
2018-04-14T14:48:00.087Z,43.40
2018-04-14T14:50:27.718Z,44.70
2018-04-14T14:52:55.348Z,45.10
2018-04-14T14:55:22.981Z,43.70
2018-04-14T14:57:51.383Z,44.70
2018-04-14T15:00:19.392Z,44.60
2018-04-14T15:02:47.048Z,44.60
2018-04-14T15:05:14.638Z,45.80
2018-04-14T15:07:42.266Z,48.30
2018-04-14T15:10:09.888Z,42.90
2018-04-14T15:12:38.275Z,44.20
2018-04-14T15:15:06.675Z,45.10
2018-04-14T15:17:34.321Z,45.20
2018-04-14T15:20:01.927Z,45.40
2018-04-14T15:22:29.547Z,43.20
2018-04-14T15:24:57.955Z,44.20
2018-04-14T15:27:25.672Z,44.00
2018-04-14T15:29:53.272Z,45.00
2018-04-14T15:32:21.655Z,45.20
2018-04-14T15:34:50.051Z,46.30
2018-04-14T15:37:17.675Z,46.30
2018-04-14T15:39:45.331Z,46.10
2018-04-14T15:42:12.927Z,47.30
2018-04-14T15:44:40.551Z,46.50
2018-04-14T15:47:08.176Z,46.70
2018-04-14T15:49:36.564Z,46.50
2018-04-14T15:52:04.186Z,46.50
2018-04-14T15:54:31.808Z,46.30
2018-04-14T15:56:59.439Z,49.60
2018-04-14T15:59:27.072Z,48.90
2018-04-14T16:01:54.689Z,47.20
2018-04-14T16:04:22.369Z,47.90
2018-04-14T16:06:49.931Z,49.10
2018-04-14T16:09:17.568Z,48.60
2018-04-14T16:11:45.962Z,49.30
2018-04-14T16:14:14.363Z,49.40
2018-04-14T16:16:41.988Z,49.40
2018-04-14T16:19:09.623Z,49.00
2018-04-14T16:21:37.252Z,48.90
2018-04-14T16:24:04.888Z,50.00
2018-04-14T16:26:32.567Z,49.70
2018-04-14T16:29:00.969Z,51.70
2018-04-14T16:31:29.361Z,50.40
2018-04-14T16:33:56.987Z,50.40
2018-04-14T16:36:29.052Z,52.00
2018-04-14T16:38:56.679Z,52.40
2018-04-14T16:41:24.313Z,52.20
2018-04-14T16:43:52.705Z,54.30
2018-04-14T16:46:20.327Z,54.20
2018-04-14T16:48:47.958Z,54.50
2018-04-14T16:51:15.590Z,53.10
2018-04-14T16:53:43.991Z,54.50
2018-04-14T16:56:11.619Z,54.50
2018-04-14T16:58:39.253Z,54.40
2018-04-14T17:01:06.898Z,55.90
2018-04-14T17:03:34.522Z,56.10
2018-04-14T17:06:02.164Z,54.80
2018-04-14T17:08:29.792Z,55.20
2018-04-14T17:10:57.419Z,55.80
2018-04-14T17:13:25.820Z,57.10
2018-04-14T17:15:54.219Z,56.70
2018-04-14T17:18:21.866Z,56.70
2018-04-14T17:20:50.263Z,56.70
2018-04-14T17:23:17.891Z,56.70
2018-04-14T17:25:45.522Z,57.50
2018-04-14T17:28:13.147Z,56.50
2018-04-14T17:30:41.547Z,55.60
2018-04-14T17:33:09.183Z,55.60
2018-04-14T17:35:36.810Z,57.00
2018-04-14T17:38:04.448Z,56.90
2018-04-14T17:40:32.083Z,56.70
2018-04-14T17:42:59.715Z,58.20
2018-04-14T17:45:27.347Z,56.70
2018-04-14T17:47:54.975Z,58.00
2018-04-14T17:50:22.603Z,58.30
2018-04-14T17:52:50.226Z,57.60
2018-04-14T17:55:17.883Z,58.20
2018-04-14T17:57:45.507Z,59.20
2018-04-14T18:00:13.142Z,60.30
2018-04-14T18:02:40.772Z,59.70
2018-04-14T18:05:08.447Z,60.90
2018-04-14T18:07:36.847Z,63.90
2018-04-14T18:10:06.435Z,63.20
2018-04-14T18:12:34.059Z,62.10
2018-04-14T18:15:01.682Z,62.70
2018-04-14T18:17:29.315Z,62.50
2018-04-14T18:19:56.947Z,64.00
2018-04-14T18:22:24.575Z,64.90
2018-04-14T18:24:52.966Z,65.20
2018-04-14T18:27:21.360Z,65.60
2018-04-14T18:29:48.983Z,65.40
2018-04-14T18:32:16.646Z,65.70
2018-04-14T18:34:44.247Z,66.10
2018-04-14T18:37:12.648Z,66.30
2018-04-14T18:39:40.282Z,66.40
2018-04-14T18:42:07.906Z,66.90
2018-04-14T18:44:35.547Z,67.80
2018-04-14T18:47:03.181Z,68.20
2018-04-14T18:49:30.807Z,67.20
2018-04-14T18:51:58.439Z,67.20
2018-04-14T18:54:26.071Z,67.50
2018-04-14T18:56:53.738Z,68.20
2018-04-14T18:59:21.323Z,68.40
2018-04-14T19:01:49.719Z,69.00
2018-04-14T19:04:17.347Z,69.00
2018-04-14T19:06:44.970Z,69.40
2018-04-14T19:09:12.616Z,69.40
2018-04-14T19:11:41.039Z,70.40
2018-04-14T19:14:08.705Z,70.40
2018-04-14T19:16:36.375Z,70.70
2018-04-14T19:19:04.160Z,70.90
2018-04-14T19:21:31.847Z,72.00
2018-04-14T19:23:59.524Z,71.30
2018-04-14T19:26:27.187Z,71.30
2018-04-14T19:28:54.856Z,71.70
2018-04-14T19:31:22.520Z,72.30
2018-04-14T19:33:50.203Z,72.70
2018-04-14T19:36:18.629Z,72.50
2018-04-14T19:38:46.287Z,72.40
2018-04-14T19:41:13.998Z,73.10
2018-04-14T19:43:41.691Z,73.10
2018-04-14T19:46:10.100Z,73.20
2018-04-14T19:48:37.828Z,73.10
2018-04-14T19:51:05.421Z,73.40
2018-04-14T19:53:33.093Z,73.60
2018-04-14T19:56:00.754Z,74.00
2018-04-14T19:58:29.192Z,74.30
2018-04-14T20:00:56.884Z,74.30
2018-04-14T20:03:24.573Z,74.70
2018-04-14T20:05:52.187Z,75.70
2018-04-14T20:08:19.816Z,76.20
2018-04-14T20:10:47.452Z,77.00
2018-04-14T20:13:15.847Z,76.40
2018-04-14T20:15:43.483Z,76.30
2018-04-14T20:18:11.107Z,76.00
2018-04-14T20:20:38.739Z,76.30
2018-04-14T20:23:06.371Z,76.00
2018-04-14T20:25:33.999Z,76.50
2018-04-14T20:28:01.639Z,76.30
2018-04-14T20:30:29.262Z,76.40
2018-04-14T20:32:56.882Z,78.00
2018-04-14T20:35:24.510Z,77.30
2018-04-14T20:37:52.139Z,77.40
2018-04-14T20:40:19.767Z,78.00
2018-04-14T20:42:47.403Z,78.30
2018-04-14T20:45:15.035Z,78.10
2018-04-14T20:47:42.663Z,77.50
2018-04-14T20:50:10.294Z,78.80
2018-04-14T20:52:37.925Z,78.00
2018-04-14T20:55:05.557Z,77.80
2018-04-14T20:57:33.939Z,78.70
2018-04-14T21:00:01.563Z,78.60
2018-04-14T21:02:29.324Z,78.40
2018-04-14T21:04:56.954Z,79.30
2018-04-14T21:07:24.626Z,78.60
2018-04-14T21:09:52.284Z,78.90
2018-04-14T21:12:20.711Z,79.60
2018-04-14T21:14:48.369Z,79.60
2018-04-14T21:17:15.986Z,78.20
2018-04-14T21:19:44.403Z,79.80
2018-04-14T21:22:12.035Z,78.90
2018-04-14T21:24:39.663Z,79.10
2018-04-14T21:27:07.291Z,78.50
2018-04-14T21:29:34.915Z,80.20
2018-04-14T21:32:02.543Z,78.80
2018-04-14T21:34:30.173Z,78.60
2018-04-14T21:36:58.562Z,79.50
2018-04-14T21:39:26.200Z,79.30
2018-04-14T21:41:53.854Z,78.60
2018-04-14T21:44:21.491Z,79.30
2018-04-14T21:46:49.420Z,78.60
2018-04-14T21:49:17.816Z,79.70
2018-04-14T21:51:45.443Z,79.60
2018-04-14T21:54:13.437Z,80.80
2018-04-14T21:56:41.838Z,82.00
2018-04-14T21:59:09.458Z,81.80
2018-04-14T22:01:37.094Z,81.60
2018-04-14T22:04:04.711Z,81.40
2018-04-14T22:06:33.103Z,82.20
2018-04-14T22:09:01.495Z,82.10
2018-04-14T22:11:29.891Z,81.90
2018-04-14T22:13:57.515Z,81.90
2018-04-14T22:16:25.149Z,82.00
2018-04-14T22:18:52.776Z,82.10
2018-04-14T22:21:21.173Z,82.60
2018-04-14T22:23:49.935Z,82.40
2018-04-14T22:26:18.327Z,83.50
2018-04-14T22:28:46.727Z,83.20
2018-04-14T22:31:25.726Z,83.00
2018-04-14T22:33:53.374Z,82.90
2018-04-14T22:36:21.007Z,83.10
2018-04-14T22:38:49.034Z,83.90
2018-04-14T22:41:17.431Z,83.30
2018-04-14T22:43:45.825Z,83.80
2018-04-14T22:46:13.469Z,83.70
2018-04-14T22:48:41.854Z,84.70
2018-04-14T22:51:10.264Z,84.50
2018-04-14T22:53:38.306Z,84.30
2018-04-14T22:56:05.934Z,84.00
2018-04-14T22:58:33.564Z,84.20
2018-04-14T23:01:01.627Z,84.00
2018-04-14T23:03:30.024Z,84.70
2018-04-14T23:05:57.651Z,84.50
2018-04-14T23:08:25.284Z,84.80
2018-04-14T23:10:52.911Z,85.20
2018-04-14T23:13:21.496Z,85.10
2018-04-14T23:15:49.878Z,85.40
2018-04-14T23:18:18.275Z,85.10
2018-04-14T23:20:45.907Z,85.10
2018-04-14T23:23:13.543Z,85.30
2018-04-14T23:25:41.167Z,86.20
2018-04-14T23:28:08.795Z,85.60
2018-04-14T23:30:36.431Z,86.10
2018-04-14T23:33:04.055Z,86.60
2018-04-14T23:35:32.452Z,86.60
2018-04-14T23:38:00.080Z,86.50
2018-04-14T23:40:27.707Z,86.90
2018-04-14T23:42:55.335Z,86.60
2018-04-14T23:45:23.735Z,87.20
2018-04-14T23:47:51.364Z,87.10
2018-04-14T23:50:18.996Z,87.30
2018-04-14T23:52:46.628Z,86.60
2018-04-14T23:55:15.011Z,87.80
2018-04-14T23:57:42.648Z,87.70
